createdAt,value
2022-10-12T00:00:55.838Z,9.84
2022-10-12T00:03:57.882Z,9.98
2022-10-12T00:06:59.935Z,10.00
2022-10-12T00:10:02.135Z,9.95
2022-10-12T00:13:04.199Z,9.99
2022-10-12T00:16:07.514Z,9.93
2022-10-12T00:19:12.763Z,9.90
2022-10-12T00:22:14.824Z,9.86
2022-10-12T00:25:16.905Z,9.78
2022-10-12T00:28:18.989Z,9.86
2022-10-12T00:31:21.696Z,9.89
2022-10-12T00:34:23.755Z,9.74
2022-10-12T00:37:25.831Z,9.96
2022-10-12T00:40:27.919Z,9.59
2022-10-12T00:43:36.181Z,9.74
2022-10-12T00:46:44.962Z,9.82
2022-10-12T00:49:51.826Z,9.42
2022-10-12T00:53:14.303Z,9.59
2022-10-12T00:56:20.043Z,9.48
2022-10-12T00:59:28.694Z,9.56
2022-10-12T01:02:30.860Z,9.43
2022-10-12T01:05:33.018Z,9.46
2022-10-12T01:08:35.103Z,9.54
2022-10-12T01:11:37.207Z,9.63
2022-10-12T01:14:39.255Z,9.64
2022-10-12T01:18:05.611Z,9.53
2022-10-12T01:21:21.002Z,9.62
2022-10-12T01:24:35.813Z,9.42
2022-10-12T01:27:49.757Z,9.46
2022-10-12T01:30:55.542Z,9.76
2022-10-12T01:34:02.203Z,9.56
2022-10-12T01:37:19.042Z,9.60
2022-10-12T01:40:30.000Z,9.35
2022-10-12T01:43:41.192Z,9.24
2022-10-12T01:46:43.694Z,8.94
2022-10-12T01:49:45.821Z,8.92
2022-10-12T01:53:25.691Z,9.08
2022-10-12T01:56:39.348Z,9.42
2022-10-12T02:00:13.711Z,9.21
2022-10-12T02:03:38.106Z,9.47
2022-10-12T02:06:51.503Z,9.51
2022-10-12T02:09:54.339Z,9.34
2022-10-12T02:12:57.047Z,9.23
2022-10-12T02:15:59.374Z,9.53
2022-10-12T02:19:01.696Z,9.31
2022-10-12T02:22:05.948Z,9.18
2022-10-12T02:25:11.206Z,9.36
2022-10-12T02:28:15.528Z,9.32
2022-10-12T02:31:47.811Z,9.28
2022-10-12T02:35:06.000Z,9.19
2022-10-12T02:38:13.810Z,9.57
2022-10-12T02:41:28.346Z,9.40
2022-10-12T02:44:32.986Z,9.34
2022-10-12T02:47:40.309Z,9.33
2022-10-12T02:50:42.558Z,9.48
2022-10-12T02:53:45.351Z,9.49
2022-10-12T02:56:47.615Z,9.48
2022-10-12T02:59:49.719Z,9.13
2022-10-12T03:02:51.755Z,9.11
2022-10-12T03:05:53.900Z,9.04
2022-10-12T03:08:57.285Z,9.36
2022-10-12T03:11:59.343Z,9.39
2022-10-12T03:15:01.382Z,9.27
2022-10-12T03:18:03.550Z,9.21
2022-10-12T03:21:05.911Z,9.11
2022-10-12T03:24:07.996Z,8.86
2022-10-12T03:27:10.066Z,8.81
2022-10-12T03:30:12.688Z,8.50
2022-10-12T03:33:14.739Z,8.62
2022-10-12T03:36:16.799Z,8.78
2022-10-12T03:39:18.826Z,8.67
2022-10-12T03:42:20.875Z,8.71
2022-10-12T03:45:22.990Z,8.66
2022-10-12T03:48:25.029Z,8.87
2022-10-12T03:51:27.508Z,8.98
2022-10-12T03:54:29.583Z,9.06
2022-10-12T03:57:31.630Z,9.13
2022-10-12T04:00:33.712Z,9.03
2022-10-12T04:03:36.611Z,9.09
2022-10-12T04:06:38.683Z,8.93
2022-10-12T04:09:40.746Z,8.96
2022-10-12T04:12:42.800Z,9.10
2022-10-12T04:15:44.901Z,9.15
2022-10-12T04:18:46.982Z,8.92
2022-10-12T04:21:49.077Z,8.94
2022-10-12T04:24:51.321Z,8.88
2022-10-12T04:27:53.381Z,8.63
2022-10-12T04:30:55.450Z,8.85
2022-10-12T04:33:57.863Z,8.84
2022-10-12T04:36:59.898Z,8.66
2022-10-12T04:40:01.940Z,8.76
2022-10-12T04:43:04.010Z,9.25
2022-10-12T04:46:06.334Z,9.17
2022-10-12T04:49:08.367Z,9.76
2022-10-12T04:52:10.386Z,9.77
2022-10-12T04:55:12.428Z,9.79
2022-10-12T04:58:14.495Z,9.86
2022-10-12T05:01:16.680Z,9.74
2022-10-12T05:04:18.927Z,9.80
2022-10-12T05:07:20.994Z,9.45
2022-10-12T05:10:23.131Z,9.61
2022-10-12T05:13:26.479Z,9.32
2022-10-12T05:16:28.561Z,9.08
2022-10-12T05:19:30.599Z,9.13
2022-10-12T05:22:32.649Z,9.07
2022-10-12T05:25:35.384Z,9.24
2022-10-12T05:28:41.090Z,9.17
2022-10-12T05:31:43.651Z,9.22
2022-10-12T05:34:46.130Z,9.28
2022-10-12T05:37:48.177Z,9.36
2022-10-12T05:40:50.230Z,9.31
2022-10-12T05:43:53.648Z,9.22
2022-10-12T05:46:55.812Z,9.14
2022-10-12T05:49:57.943Z,9.47
2022-10-12T05:53:00.062Z,9.36
2022-10-12T05:56:02.195Z,9.17
2022-10-12T05:59:04.354Z,9.45
2022-10-12T06:02:06.557Z,9.41
2022-10-12T06:05:08.887Z,9.44
2022-10-12T06:08:11.133Z,9.50
2022-10-12T06:11:13.738Z,9.47
2022-10-12T06:14:15.898Z,9.54
2022-10-12T06:17:18.042Z,9.59
2022-10-12T06:20:20.160Z,9.57
2022-10-12T06:23:22.299Z,9.52
2022-10-12T06:26:25.010Z,9.42
2022-10-12T06:29:27.115Z,9.38
2022-10-12T06:32:29.216Z,9.30
2022-10-12T06:35:31.331Z,8.95
2022-10-12T06:38:33.422Z,8.85
2022-10-12T06:41:35.508Z,8.74
2022-10-12T06:44:43.359Z,8.69
2022-10-12T06:47:45.810Z,9.06
2022-10-12T06:50:47.874Z,9.13
2022-10-12T06:53:49.919Z,9.22
2022-10-12T06:56:55.420Z,9.09
2022-10-12T07:00:00.626Z,9.50
2022-10-12T07:03:02.745Z,9.20
2022-10-12T07:06:09.207Z,9.16
2022-10-12T07:09:11.299Z,9.40
2022-10-12T07:12:13.476Z,9.62
2022-10-12T07:15:15.711Z,9.63
2022-10-12T07:18:17.879Z,9.72
2022-10-12T07:21:19.959Z,9.81
2022-10-12T07:24:22.023Z,9.86
2022-10-12T07:27:24.191Z,9.64
2022-10-12T07:30:26.301Z,9.41
2022-10-12T07:33:31.564Z,9.64
2022-10-12T07:36:57.520Z,9.54
2022-10-12T07:39:57.671Z,9.54
2022-10-12T07:43:15.241Z,9.78
2022-10-12T07:46:18.409Z,9.45
2022-10-12T07:49:21.674Z,9.60
2022-10-12T07:52:23.778Z,9.26
2022-10-12T07:55:26.049Z,9.29
2022-10-12T07:58:28.575Z,9.53
2022-10-12T08:01:31.127Z,9.53
2022-10-12T08:04:33.375Z,9.68
2022-10-12T08:07:35.758Z,10.08
2022-10-12T08:10:38.068Z,10.26
2022-10-12T08:13:40.306Z,10.37
2022-10-12T08:16:45.754Z,10.41
2022-10-12T08:19:48.171Z,10.56
2022-10-12T08:22:50.304Z,10.96
2022-10-12T08:25:56.760Z,11.08
2022-10-12T08:28:59.063Z,11.73
2022-10-12T08:32:02.155Z,11.95
2022-10-12T08:35:05.508Z,12.00
2022-10-12T08:38:09.105Z,12.01
2022-10-12T08:41:52.326Z,11.24
2022-10-12T08:45:06.468Z,10.96
2022-10-12T08:48:14.435Z,11.03
2022-10-12T08:51:22.672Z,11.25
2022-10-12T08:54:30.782Z,10.89
2022-10-12T08:57:34.701Z,10.86
2022-10-12T09:00:36.750Z,11.02
2022-10-12T09:04:01.952Z,11.20
2022-10-12T09:07:16.967Z,11.12
2022-10-12T09:10:49.863Z,11.53
2022-10-12T09:14:17.939Z,11.90
2022-10-12T09:17:53.808Z,12.80
2022-10-12T09:20:55.856Z,12.20
2022-10-12T09:23:58.064Z,12.43
2022-10-12T09:27:01.198Z,12.37
2022-10-12T09:30:04.602Z,12.42
2022-10-12T09:33:25.611Z,12.59
2022-10-12T09:36:31.319Z,12.35
2022-10-12T09:39:35.632Z,12.44
2022-10-12T09:42:37.885Z,12.43
2022-10-12T09:45:40.046Z,12.84
2022-10-12T09:48:58.057Z,12.70
2022-10-12T09:52:00.406Z,12.82
2022-10-12T09:55:14.865Z,12.66
2022-10-12T09:58:19.520Z,12.75
2022-10-12T10:01:23.408Z,12.88
2022-10-12T10:04:26.727Z,12.91
2022-10-12T10:07:35.221Z,13.07
2022-10-12T10:10:37.313Z,13.08
2022-10-12T10:13:39.421Z,13.22
2022-10-12T10:16:51.157Z,13.38
2022-10-12T10:19:54.526Z,13.42
2022-10-12T10:22:56.611Z,13.55
2022-10-12T10:26:15.110Z,14.01
2022-10-12T10:29:40.698Z,13.68
2022-10-12T10:32:46.292Z,14.28
2022-10-12T10:36:00.262Z,14.40
2022-10-12T10:39:08.062Z,14.74
2022-10-12T10:42:21.205Z,14.34
2022-10-12T10:45:32.374Z,14.96
2022-10-12T10:49:02.014Z,14.63
2022-10-12T10:52:04.721Z,14.65
2022-10-12T10:55:25.744Z,15.22
2022-10-12T10:58:49.011Z,15.14
2022-10-12T11:01:58.908Z,15.22
2022-10-12T11:05:08.008Z,15.24
2022-10-12T11:08:33.246Z,15.31
2022-10-12T11:11:36.852Z,15.92
2022-10-12T11:14:49.086Z,15.89
2022-10-12T11:18:16.070Z,15.37
2022-10-12T11:21:31.325Z,15.06
2022-10-12T11:25:03.458Z,14.74
2022-10-12T11:28:08.095Z,14.33
2022-10-12T11:31:23.675Z,14.58
2022-10-12T11:34:26.186Z,14.82
2022-10-12T11:37:59.555Z,14.50
2022-10-12T11:41:34.868Z,14.04
2022-10-12T11:44:42.339Z,14.02
2022-10-12T11:47:47.212Z,14.16
2022-10-12T11:50:49.724Z,14.43
2022-10-12T11:54:14.375Z,14.37
2022-10-12T11:57:30.072Z,14.38
2022-10-12T12:01:03.094Z,14.40
2022-10-12T12:07:56.628Z,15.21
2022-10-12T12:11:18.693Z,15.20
2022-10-12T12:14:26.766Z,14.99
2022-10-12T12:17:32.306Z,14.87
2022-10-12T12:20:43.591Z,14.70
2022-10-12T12:23:53.824Z,14.60
2022-10-12T12:26:55.970Z,14.68
2022-10-12T12:29:59.091Z,14.87
2022-10-12T12:33:21.249Z,14.74
2022-10-12T12:36:34.002Z,14.86
2022-10-12T12:39:36.113Z,15.35
2022-10-12T12:42:38.214Z,14.86
2022-10-12T12:45:41.505Z,15.13
2022-10-12T12:48:43.466Z,14.89
2022-10-12T12:51:45.516Z,14.78
2022-10-12T12:55:09.906Z,14.58
2022-10-12T12:58:48.272Z,14.99
2022-10-12T13:02:38.920Z,14.90
2022-10-12T13:06:05.389Z,15.15
2022-10-12T13:09:39.663Z,14.97
2022-10-12T13:12:56.333Z,15.09
2022-10-12T13:17:30.065Z,15.21
2022-10-12T13:19:58.151Z,15.38
2022-10-12T13:23:03.039Z,15.32
2022-10-12T13:26:07.574Z,15.91
2022-10-12T13:29:36.855Z,16.05
2022-10-12T13:33:17.562Z,17.34
2022-10-12T13:37:00.179Z,17.80
2022-10-12T13:40:04.489Z,18.14
2022-10-12T13:43:27.156Z,17.03
2022-10-12T13:46:48.610Z,16.32
2022-10-12T13:49:50.824Z,15.80
2022-10-12T13:52:55.894Z,15.44
2022-10-12T13:56:01.700Z,15.21
2022-10-12T13:59:07.007Z,14.98
2022-10-12T14:02:25.468Z,14.74
2022-10-12T14:05:29.777Z,14.95
2022-10-12T14:08:33.076Z,14.95
2022-10-12T14:11:35.211Z,14.76
2022-10-12T14:14:37.595Z,14.93
2022-10-12T14:17:47.754Z,14.82
2022-10-12T14:20:49.888Z,14.87
2022-10-12T14:23:59.751Z,14.73
2022-10-12T14:27:03.936Z,14.29
2022-10-12T14:30:24.687Z,14.38
2022-10-12T14:33:27.099Z,14.37
2022-10-12T14:36:29.179Z,13.91
2022-10-12T14:39:31.379Z,13.98
2022-10-12T14:42:35.630Z,14.37
2022-10-12T14:45:37.753Z,14.23
2022-10-12T14:48:39.872Z,14.36
2022-10-12T14:51:41.938Z,14.27
2022-10-12T14:54:44.098Z,14.22
2022-10-12T14:57:46.683Z,14.01
2022-10-12T15:00:49.202Z,13.83
2022-10-12T15:03:51.476Z,13.94
2022-10-12T15:06:53.598Z,13.94
2022-10-12T15:09:55.752Z,13.94
2022-10-12T15:12:57.876Z,14.08
2022-10-12T15:16:00.678Z,13.96
2022-10-12T15:19:02.739Z,14.28
2022-10-12T15:22:04.991Z,14.21
2022-10-12T15:25:37.818Z,14.08
2022-10-12T15:28:40.041Z,13.82
2022-10-12T15:31:42.183Z,14.05
2022-10-12T15:34:44.423Z,14.02
2022-10-12T15:37:46.759Z,14.05
2022-10-12T15:40:51.039Z,14.06
2022-10-12T15:43:53.137Z,14.08
2022-10-12T15:46:55.319Z,13.98
2022-10-12T15:49:57.373Z,14.00
2022-10-12T15:52:59.445Z,14.19
2022-10-12T15:56:01.628Z,14.56
2022-10-12T15:59:03.963Z,14.26
2022-10-12T16:02:11.211Z,13.87
2022-10-12T16:05:42.790Z,13.48
2022-10-12T16:08:44.843Z,12.87
2022-10-12T16:11:46.898Z,12.53
2022-10-12T16:14:48.962Z,12.81
2022-10-12T16:17:51.426Z,12.79
2022-10-12T16:20:54.159Z,12.68
2022-10-12T16:23:56.415Z,12.66
2022-10-12T16:26:58.494Z,12.79
2022-10-12T16:30:00.568Z,12.86
2022-10-12T16:33:02.662Z,13.35
2022-10-12T16:36:15.647Z,13.02
2022-10-12T16:39:17.709Z,13.08
2022-10-12T16:42:20.396Z,13.19
2022-10-12T16:45:23.016Z,12.94
2022-10-12T16:48:25.123Z,12.76
2022-10-12T16:51:27.211Z,12.72
2022-10-12T16:54:29.366Z,12.53
2022-10-12T16:57:31.615Z,12.38
2022-10-12T17:00:33.746Z,12.40
2022-10-12T17:03:35.859Z,12.02
2022-10-12T17:06:37.929Z,12.21
2022-10-12T17:09:39.982Z,12.51
2022-10-12T17:12:42.065Z,12.72
2022-10-12T17:15:44.138Z,12.38
2022-10-12T17:18:46.189Z,12.48
2022-10-12T17:21:48.456Z,12.58
2022-10-12T17:24:50.568Z,12.66
2022-10-12T17:27:52.719Z,12.85
2022-10-12T17:30:54.869Z,12.76
2022-10-12T17:33:58.305Z,12.72
2022-10-12T17:37:01.231Z,12.86
2022-10-12T17:40:03.441Z,12.71
2022-10-12T17:43:05.494Z,12.35
2022-10-12T17:46:07.625Z,11.89
2022-10-12T17:49:15.533Z,11.73
2022-10-12T17:52:17.928Z,11.65
2022-10-12T17:55:43.323Z,11.86
2022-10-12T17:58:42.530Z,11.79
2022-10-12T18:01:44.615Z,11.58
2022-10-12T18:04:46.659Z,11.80
2022-10-12T18:07:48.743Z,11.78
2022-10-12T18:10:50.801Z,11.82
2022-10-12T18:13:54.831Z,11.95
2022-10-12T18:16:58.721Z,12.21
2022-10-12T18:20:01.116Z,12.33
2022-10-12T18:23:03.271Z,12.13
2022-10-12T18:26:07.042Z,11.60
2022-10-12T18:29:09.182Z,11.33
2022-10-12T18:32:12.583Z,11.11
2022-10-12T18:35:14.713Z,11.10
2022-10-12T18:38:17.086Z,11.16
2022-10-12T18:41:26.841Z,11.27
2022-10-12T18:44:28.939Z,11.15
2022-10-12T18:47:30.983Z,11.22
2022-10-12T18:50:35.834Z,11.30
2022-10-12T18:53:37.937Z,11.53
2022-10-12T18:56:40.447Z,11.37
2022-10-12T18:59:42.620Z,10.78
2022-10-12T19:02:44.773Z,10.66
2022-10-12T19:05:46.827Z,11.03
2022-10-12T19:08:49.430Z,11.11
2022-10-12T19:11:51.478Z,10.91
2022-10-12T19:14:53.621Z,10.80
2022-10-12T19:17:55.682Z,10.87
2022-10-12T19:20:57.761Z,10.65
2022-10-12T19:24:03.707Z,10.65
2022-10-12T19:27:05.825Z,10.65
2022-10-12T19:30:09.257Z,10.21
2022-10-12T19:33:11.645Z,10.12
2022-10-12T19:36:20.701Z,10.24
2022-10-12T19:39:23.711Z,10.32
2022-10-12T19:42:26.237Z,10.12
2022-10-12T19:45:28.832Z,10.05
2022-10-12T19:48:31.208Z,10.16
2022-10-12T19:51:33.923Z,10.29
2022-10-12T19:54:36.424Z,10.12
2022-10-12T19:57:38.963Z,10.01
2022-10-12T20:00:41.127Z,9.92
2022-10-12T20:03:47.611Z,9.87
2022-10-12T20:06:50.107Z,9.93
2022-10-12T20:09:52.169Z,9.93
2022-10-12T20:12:54.250Z,9.91
2022-10-12T20:15:56.747Z,10.06
2022-10-12T20:18:58.844Z,9.99
2022-10-12T20:22:00.927Z,9.86
2022-10-12T20:25:06.986Z,9.86
2022-10-12T20:28:11.820Z,9.82
2022-10-12T20:31:14.145Z,9.61
2022-10-12T20:34:16.259Z,9.44
2022-10-12T20:37:18.790Z,9.60
2022-10-12T20:40:21.032Z,9.42
2022-10-12T20:43:23.079Z,9.33
2022-10-12T20:46:25.334Z,9.12
2022-10-12T20:49:27.391Z,9.09
2022-10-12T20:52:29.629Z,9.07
2022-10-12T20:55:31.818Z,9.00
2022-10-12T20:58:34.014Z,9.01
2022-10-12T21:01:36.127Z,9.06
2022-10-12T21:04:38.590Z,9.18
2022-10-12T21:07:40.666Z,9.18
2022-10-12T21:10:47.545Z,9.19
2022-10-12T21:13:49.744Z,9.24
2022-10-12T21:16:52.318Z,9.22
2022-10-12T21:19:54.367Z,9.27
2022-10-12T21:22:56.490Z,9.19
2022-10-12T21:25:58.546Z,9.19
2022-10-12T21:29:00.683Z,9.32
2022-10-12T21:32:02.745Z,9.44
2022-10-12T21:35:05.293Z,9.50
2022-10-12T21:38:07.394Z,9.43
2022-10-12T21:41:11.122Z,9.33
2022-10-12T21:44:13.244Z,9.31
2022-10-12T21:47:18.256Z,9.34
2022-10-12T21:50:20.595Z,9.44
2022-10-12T21:53:22.695Z,9.38
2022-10-12T21:56:27.061Z,9.52
2022-10-12T21:59:29.238Z,9.47
2022-10-12T22:02:31.268Z,9.51
2022-10-12T22:05:39.767Z,9.45
2022-10-12T22:08:42.263Z,9.50
2022-10-12T22:11:49.343Z,9.57
2022-10-12T22:14:51.393Z,9.40
2022-10-12T22:17:53.499Z,9.33
2022-10-12T22:20:55.571Z,9.08
2022-10-12T22:23:58.444Z,8.98
2022-10-12T22:27:01.389Z,8.98
2022-10-12T22:30:03.883Z,8.85
2022-10-12T22:33:05.932Z,8.79
2022-10-12T22:36:10.261Z,8.91
2022-10-12T22:39:12.367Z,8.84
2022-10-12T22:42:18.058Z,8.86
2022-10-12T22:45:24.472Z,8.75
2022-10-12T22:48:29.350Z,8.51
2022-10-12T22:51:33.955Z,8.44
2022-10-12T22:54:36.138Z,8.48
2022-10-12T22:57:38.295Z,8.53
2022-10-12T23:00:40.621Z,8.51
2022-10-12T23:03:42.870Z,8.37
2022-10-12T23:06:45.032Z,8.37
2022-10-12T23:09:48.713Z,8.35
2022-10-12T23:12:50.909Z,8.21
2022-10-12T23:15:52.976Z,8.14
2022-10-12T23:19:00.327Z,8.18
2022-10-12T23:22:02.381Z,8.40
2022-10-12T23:25:04.904Z,8.36
2022-10-12T23:28:06.981Z,8.19
2022-10-12T23:31:10.617Z,8.13
2022-10-12T23:34:13.010Z,8.10
2022-10-12T23:37:15.085Z,8.07
2022-10-12T23:40:18.756Z,8.03
2022-10-12T23:43:20.970Z,7.95
2022-10-12T23:46:23.091Z,7.95
2022-10-12T23:49:26.647Z,7.78
2022-10-12T23:52:36.246Z,7.48
2022-10-12T23:55:38.407Z,7.33
2022-10-12T23:58:40.787Z,7.35
